Time;durP1;ratioP1;P1;durP2;ratioP2;P2;SDS_P1;SDS_P2;PMS_P1;PMS_P2;Temp;Humidity;BMP_temperature;BMP_pressure;BME280_temperature;BME280_humidity;BME280_pressure;Samples;Min_cycle;Max_cycle;Signal;HPM_P1;HPM_P2
2021/12/27 00:01:32;;;;;;;1.58;0.90;;;27.50;44.70;;;;;;5012791;28;20209;-46
2021/12/27 00:04:03;;;;;;;2.55;1.55;;;27.50;44.70;;;;;;5009520;28;20280;-43
2021/12/27 00:06:33;;;;;;;1.73;1.10;;;27.50;44.70;;;;;;4996848;28;20265;-45
2021/12/27 00:09:03;;;;;;;2.50;1.40;;;27.60;44.70;;;;;;5010249;28;20319;-41
2021/12/27 00:11:36;;;;;;;2.45;1.25;;;27.60;44.70;;;;;;5011411;28;20648;-42
2021/12/27 00:14:06;;;;;;;2.97;1.33;;;27.60;44.70;;;;;;5010968;28;20287;-45
2021/12/27 00:16:37;;;;;;;3.55;1.40;;;27.60;44.60;;;;;;5012182;28;20216;-46
2021/12/27 00:19:08;;;;;;;3.45;1.55;;;27.60;44.60;;;;;;5010191;28;20932;-48
2021/12/27 00:21:39;;;;;;;1.85;1.30;;;27.70;44.60;;;;;;5010509;28;20219;-44
2021/12/27 00:24:10;;;;;;;3.15;1.42;;;27.70;44.50;;;;;;5009982;28;20291;-42
2021/12/27 00:26:44;;;;;;;3.92;1.60;;;27.70;44.50;;;;;;5011313;28;20250;-43
2021/12/27 00:29:15;;;;;;;2.65;1.35;;;27.80;44.50;;;;;;5012135;28;20732;-42
2021/12/27 00:31:46;;;;;;;3.33;1.60;;;27.70;44.40;;;;;;5020888;28;20339;-42
2021/12/27 00:34:16;;;;;;;3.83;1.65;;;27.80;44.40;;;;;;5017168;28;20284;-46
2021/12/27 00:36:47;;;;;;;6.35;2.05;;;27.80;44.40;;;;;;5008026;28;20661;-42
2021/12/27 00:39:17;;;;;;;7.75;2.47;;;27.80;44.60;;;;;;5005144;28;20513;-42
2021/12/27 00:41:50;;;;;;;7.47;2.33;;;27.80;44.70;;;;;;5010948;28;20284;-41
2021/12/27 00:44:20;;;;;;;10.60;3.55;;;27.80;45.20;;;;;;4994864;28;20745;-41
2021/12/27 00:46:51;;;;;;;13.10;4.20;;;27.70;45.20;;;;;;5008953;28;20710;-36
2021/12/27 00:49:21;;;;;;;7.75;2.75;;;27.70;45.40;;;;;;5018960;28;20303;-46
2021/12/27 00:51:52;;;;;;;8.32;2.60;;;27.70;45.50;;;;;;5011973;28;20308;-40
2021/12/27 00:54:22;;;;;;;10.57;2.55;;;27.70;45.60;;;;;;5005135;28;20997;-48
2021/12/27 00:56:55;;;;;;;9.00;2.65;;;27.60;45.90;;;;;;5010013;28;20228;-47
2021/12/27 00:59:25;;;;;;;8.02;2.28;;;27.60;45.90;;;;;;5010492;28;20307;-40
2021/12/27 01:01:56;;;;;;;10.32;2.45;;;27.50;45.80;;;;;;5011376;28;20285;-51
2021/12/27 01:04:27;;;;;;;9.00;3.08;;;27.50;46.20;;;;;;5010127;28;20255;-53
2021/12/27 01:06:57;;;;;;;6.65;2.22;;;27.40;46.40;;;;;;5002889;28;20228;-54
2021/12/27 01:09:37;;;;;;;10.90;2.70;;;27.40;46.70;;;;;;5005935;28;20587;-47
2021/12/27 01:12:26;;;;;;;12.27;2.83;;;27.30;46.80;;;;;;4999941;28;20225;-50
2021/12/27 01:15:33;;;;;;;6.22;2.58;;;27.30;47.00;;;;;;5022035;28;20200;-50
2021/12/27 01:18:03;;;;;;;9.13;2.15;;;27.30;46.90;;;;;;4998359;28;20196;-48
2021/12/27 01:20:35;;;;;;;9.80;2.85;;;27.30;47.00;;;;;;5005688;28;20231;-53
2021/12/27 01:23:05;;;;;;;7.88;2.20;;;27.30;47.10;;;;;;4994444;28;20201;-43
2021/12/27 01:25:36;;;;;;;5.70;2.30;;;27.30;47.20;;;;;;5009750;28;20216;-41
2021/12/27 01:28:09;;;;;;;8.02;2.40;;;27.30;47.20;;;;;;5008026;28;20236;-40
2021/12/27 01:30:47;;;;;;;5.40;2.38;;;27.40;47.40;;;;;;5007892;28;20205;-40
2021/12/27 01:33:18;;;;;;;5.10;2.10;;;27.40;47.40;;;;;;5008311;28;20311;-50
2021/12/27 01:35:49;;;;;;;5.50;2.35;;;27.40;47.30;;;;;;5009202;28;20901;-43
2021/12/27 01:38:20;;;;;;;5.88;2.33;;;27.50;47.30;;;;;;5008977;28;20292;-40
2021/12/27 01:40:52;;;;;;;5.55;2.22;;;27.50;47.20;;;;;;5009257;28;20247;-43
2021/12/27 01:43:27;;;;;;;5.78;2.40;;;27.60;47.20;;;;;;5009649;28;20605;-40
2021/12/27 01:45:59;;;;;;;4.93;1.95;;;27.70;47.10;;;;;;5008799;28;20833;-40
2021/12/27 01:48:36;;;;;;;5.97;1.95;;;27.70;47.00;;;;;;5009492;28;20315;-47
2021/12/27 01:51:08;;;;;;;5.35;1.98;;;27.80;46.90;;;;;;5008292;28;20280;-47
2021/12/27 01:53:40;;;;;;;5.85;2.25;;;27.80;46.80;;;;;;5008624;28;20252;-49
2021/12/27 01:56:12;;;;;;;6.63;2.03;;;27.80;46.70;;;;;;5008812;28;20601;-42
2021/12/27 01:58:45;;;;;;;6.45;2.13;;;27.90;46.60;;;;;;5008938;28;20217;-50
2021/12/27 02:01:16;;;;;;;5.30;2.08;;;27.90;46.50;;;;;;5009919;28;20251;-42
2021/12/27 02:03:47;;;;;;;5.85;2.00;;;27.90;47.00;;;;;;5008264;28;20208;-50
2021/12/27 02:06:18;;;;;;;5.57;2.35;;;28.00;46.30;;;;;;5009359;28;20288;-49
2021/12/27 02:08:49;;;;;;;3.95;2.20;;;28.00;46.20;;;;;;5007765;28;20692;-48
2021/12/27 02:11:21;;;;;;;5.53;2.63;;;28.10;46.20;;;;;;5007856;28;20287;-46
2021/12/27 02:13:53;;;;;;;6.88;2.30;;;28.10;46.10;;;;;;5009216;28;20225;-49
2021/12/27 02:16:25;;;;;;;5.57;2.15;;;28.10;46.00;;;;;;5008748;28;20209;-46
2021/12/27 02:18:55;;;;;;;5.35;2.25;;;28.10;45.90;;;;;;5009424;28;20221;-45
2021/12/27 02:21:31;;;;;;;5.25;2.00;;;28.20;46.60;;;;;;5009565;28;20204;-46
2021/12/27 02:24:03;;;;;;;5.53;2.50;;;28.20;45.90;;;;;;5008978;28;20200;-46
2021/12/27 02:26:34;;;;;;;6.10;2.13;;;28.20;45.80;;;;;;5007002;28;20657;-51
2021/12/27 02:29:04;;;;;;;4.72;2.13;;;28.30;45.80;;;;;;5007616;28;20224;-51
2021/12/27 02:31:39;;;;;;;6.40;2.55;;;28.20;45.80;;;;;;5007418;28;20285;-41
2021/12/27 02:34:13;;;;;;;5.47;2.17;;;28.30;45.70;;;;;;5009003;28;20710;-50
2021/12/27 02:36:45;;;;;;;6.47;2.60;;;28.30;46.30;;;;;;5009826;28;20219;-48
2021/12/27 02:39:16;;;;;;;5.90;2.45;;;28.30;45.60;;;;;;5008431;28;20267;-41
2021/12/27 02:41:46;;;;;;;5.65;2.00;;;28.30;45.60;;;;;;5008192;28;20192;-50
2021/12/27 02:44:17;;;;;;;5.85;2.30;;;28.40;45.60;;;;;;5008131;28;20252;-41
2021/12/27 02:46:48;;;;;;;5.25;2.00;;;28.30;45.60;;;;;;5008837;28;20203;-47
2021/12/27 02:49:18;;;;;;;6.45;2.35;;;28.30;45.50;;;;;;5011423;28;20232;-43
2021/12/27 02:51:52;;;;;;;5.93;2.25;;;28.40;45.50;;;;;;5008963;28;20255;-47
2021/12/27 02:54:23;;;;;;;5.22;1.73;;;28.40;45.40;;;;;;5008218;28;20225;-39
2021/12/27 02:56:53;;;;;;;6.00;2.35;;;28.40;45.40;;;;;;5007657;28;20235;-48
2021/12/27 02:59:24;;;;;;;7.68;2.42;;;28.40;45.40;;;;;;5007861;28;20661;-51
2021/12/27 03:01:57;;;;;;;4.72;2.03;;;28.40;45.30;;;;;;5007773;28;20250;-47
2021/12/27 03:04:28;;;;;;;5.30;2.58;;;28.40;45.30;;;;;;5006710;28;20337;-45
2021/12/27 03:07:00;;;;;;;4.60;2.00;;;28.40;45.30;;;;;;5008149;28;20223;-44
2021/12/27 03:09:31;;;;;;;4.85;2.38;;;28.40;45.30;;;;;;5007887;28;20337;-41
2021/12/27 03:12:01;;;;;;;4.45;2.05;;;28.40;45.20;;;;;;5007873;28;20275;-42
2021/12/27 03:14:32;;;;;;;5.47;2.30;;;28.40;45.20;;;;;;5007350;28;20256;-43
2021/12/27 03:17:02;;;;;;;3.97;2.03;;;28.40;45.10;;;;;;5007814;28;20295;-42
2021/12/27 03:19:33;;;;;;;4.82;1.80;;;28.40;45.10;;;;;;5005439;28;20733;-44
2021/12/27 03:22:05;;;;;;;6.15;2.08;;;28.40;45.20;;;;;;5008425;28;20276;-45
2021/12/27 03:24:36;;;;;;;3.80;2.08;;;28.40;45.20;;;;;;5005836;28;20228;-46
2021/12/27 03:27:06;;;;;;;5.82;2.33;;;28.40;45.10;;;;;;5007422;28;20251;-50
2021/12/27 03:29:37;;;;;;;4.80;2.20;;;28.40;45.10;;;;;;5006799;28;21079;-50
2021/12/27 03:32:08;;;;;;;5.43;2.30;;;28.40;45.10;;;;;;5007889;28;20278;-45
2021/12/27 03:34:42;;;;;;;5.53;2.20;;;28.40;45.10;;;;;;5007312;28;20670;-42
2021/12/27 03:37:14;;;;;;;5.10;2.53;;;28.30;45.00;;;;;;5006814;28;20200;-43
2021/12/27 03:39:45;;;;;;;5.03;2.20;;;28.30;45.00;;;;;;5008446;28;21038;-48
2021/12/27 03:42:16;;;;;;;4.18;2.10;;;28.40;45.00;;;;;;5007736;28;20232;-45
2021/12/27 03:44:47;;;;;;;5.07;2.13;;;28.30;44.90;;;;;;5006743;28;20820;-46
2021/12/27 03:47:18;;;;;;;5.10;2.30;;;28.30;44.90;;;;;;5007906;28;20201;-48
2021/12/27 03:49:49;;;;;;;6.80;2.00;;;28.30;44.80;;;;;;5007602;28;20445;-40
2021/12/27 03:52:21;;;;;;;10.70;2.53;;;28.30;44.90;;;;;;5004674;28;20262;-43
2021/12/27 03:54:52;;;;;;;9.63;2.50;;;28.20;44.60;;;;;;5006716;28;20211;-39
2021/12/27 03:57:22;;;;;;;9.50;3.35;;;28.20;44.50;;;;;;5007048;28;20276;-40
2021/12/27 04:00:15;;;;;;;8.63;2.78;;;28.20;44.40;;;;;;5008033;28;20281;-39
2021/12/27 04:02:45;;;;;;;11.38;2.40;;;28.10;44.30;;;;;;5007314;28;20197;-41
2021/12/27 04:05:16;;;;;;;6.72;2.30;;;28.10;44.40;;;;;;5006829;28;20229;-42
2021/12/27 04:07:57;;;;;;;6.75;1.98;;;28.10;44.50;;;;;;5007633;28;20296;-44
2021/12/27 04:10:27;;;;;;;6.78;2.15;;;28.00;44.50;;;;;;5006502;28;20248;-42
2021/12/27 04:12:58;;;;;;;9.25;2.55;;;28.00;44.60;;;;;;5006989;28;20264;-47
2021/12/27 04:15:29;;;;;;;10.77;3.10;;;27.90;44.60;;;;;;5007183;28;20652;-41
2021/12/27 04:17:59;;;;;;;8.43;2.67;;;27.90;44.60;;;;;;5007642;28;20197;-42
2021/12/27 04:20:30;;;;;;;9.15;2.47;;;27.80;44.60;;;;;;5007099;28;20304;-44
2021/12/27 04:23:03;;;;;;;8.40;2.42;;;27.80;44.70;;;;;;5001894;28;20289;-40
2021/12/27 04:25:33;;;;;;;8.05;2.20;;;27.80;44.70;;;;;;5005818;28;20229;-40
2021/12/27 04:28:03;;;;;;;6.32;2.38;;;27.80;44.80;;;;;;5007056;28;20284;-42
2021/12/27 04:30:34;;;;;;;11.27;2.75;;;27.70;44.80;;;;;;5008335;28;20304;-41
2021/12/27 04:33:05;;;;;;;6.72;2.47;;;27.70;44.80;;;;;;5009711;28;20674;-54
2021/12/27 04:35:36;;;;;;;7.65;2.38;;;27.70;44.90;;;;;;5010553;28;20197;-54
2021/12/27 04:38:09;;;;;;;7.18;1.95;;;27.60;44.90;;;;;;5009858;28;20208;-53
2021/12/27 04:40:43;;;;;;;8.05;2.47;;;27.60;44.90;;;;;;5010246;28;20247;-42
2021/12/27 04:43:15;;;;;;;9.52;2.88;;;27.60;44.90;;;;;;5008814;28;20663;-46
2021/12/27 04:45:46;;;;;;;7.13;2.65;;;27.50;44.90;;;;;;5010098;28;20292;-45
2021/12/27 04:48:17;;;;;;;8.02;1.90;;;27.50;45.00;;;;;;5010203;28;20209;-53
2021/12/27 04:50:48;;;;;;;8.52;2.53;;;27.50;45.00;;;;;;5009822;28;20279;-46
2021/12/27 04:53:20;;;;;;;6.50;2.30;;;27.40;45.00;;;;;;5010155;28;20312;-40
2021/12/27 04:55:51;;;;;;;8.32;2.50;;;27.40;45.00;;;;;;5009697;28;20717;-43
2021/12/27 04:58:23;;;;;;;11.00;3.13;;;27.40;45.10;;;;;;5009435;28;20301;-56
2021/12/27 05:00:55;;;;;;;7.18;2.50;;;27.40;45.20;;;;;;5009367;28;20711;-47
2021/12/27 05:03:25;;;;;;;7.35;2.25;;;27.40;45.20;;;;;;5009374;28;20201;-42
2021/12/27 05:05:55;;;;;;;7.47;2.67;;;27.30;45.20;;;;;;5009667;28;20280;-40
2021/12/27 05:08:28;;;;;;;6.75;2.50;;;27.30;45.30;;;;;;5010366;28;20288;-40
2021/12/27 05:10:58;;;;;;;6.45;2.30;;;27.30;45.40;;;;;;5010316;28;20288;-44
2021/12/27 05:13:31;;;;;;;7.72;2.42;;;27.30;45.40;;;;;;5009659;28;20351;-39
2021/12/27 05:16:02;;;;;;;7.03;2.20;;;27.20;45.40;;;;;;5009983;28;20569;-46
2021/12/27 05:18:33;;;;;;;6.47;2.15;;;27.20;45.40;;;;;;5008895;28;20248;-49
2021/12/27 05:21:03;;;;;;;5.82;2.20;;;27.20;45.50;;;;;;5009482;28;20834;-50
2021/12/27 05:23:36;;;;;;;6.35;2.17;;;27.20;45.50;;;;;;5010061;28;20323;-53
2021/12/27 05:26:06;;;;;;;5.18;2.03;;;27.20;45.50;;;;;;5010274;28;20744;-46
2021/12/27 05:28:37;;;;;;;6.55;2.33;;;27.20;45.50;;;;;;5009942;28;20248;-48
2021/12/27 05:31:07;;;;;;;6.68;2.50;;;27.20;45.60;;;;;;5009674;28;20229;-42
2021/12/27 05:33:38;;;;;;;5.00;1.90;;;27.20;45.60;;;;;;5008883;28;20661;-47
2021/12/27 05:36:08;;;;;;;5.80;2.28;;;27.20;45.60;;;;;;5008050;28;20292;-51
2021/12/27 05:38:44;;;;;;;6.00;1.55;;;27.10;45.60;;;;;;5009239;28;20248;-43
2021/12/27 05:41:14;;;;;;;4.22;1.98;;;27.10;45.70;;;;;;5008529;28;20196;-40
2021/12/27 05:43:45;;;;;;;6.68;2.22;;;27.10;45.70;;;;;;5008929;28;20304;-39
2021/12/27 05:46:15;;;;;;;6.20;2.03;;;27.10;45.70;;;;;;5009809;28;20637;-40
2021/12/27 05:48:46;;;;;;;4.55;2.10;;;27.10;46.40;;;;;;5007838;28;20225;-39
2021/12/27 05:51:16;;;;;;;6.05;2.20;;;27.10;45.80;;;;;;5008339;28;20295;-41
2021/12/27 05:53:48;;;;;;;6.47;2.20;;;27.00;45.80;;;;;;5008416;28;20666;-40
2021/12/27 05:56:19;;;;;;;5.50;1.83;;;27.00;45.90;;;;;;5009075;28;20300;-40
2021/12/27 05:58:50;;;;;;;4.75;2.25;;;27.00;45.90;;;;;;5009357;28;20263;-52
2021/12/27 06:01:20;;;;;;;4.00;1.83;;;27.00;45.90;;;;;;5009269;28;20724;-54
2021/12/27 06:03:51;;;;;;;4.03;1.55;;;26.90;45.90;;;;;;5007558;28;20295;-52
2021/12/27 06:06:21;;;;;;;3.67;1.73;;;26.90;45.90;;;;;;5007991;28;20284;-50
2021/12/27 06:08:54;;;;;;;5.60;2.20;;;27.00;46.00;;;;;;5008840;28;21639;-50
2021/12/27 06:11:24;;;;;;;5.05;1.85;;;26.90;46.00;;;;;;5008769;28;20296;-43
2021/12/27 06:13:55;;;;;;;5.97;1.80;;;26.90;46.00;;;;;;5009287;28;20310;-49
2021/12/27 06:16:25;;;;;;;3.08;1.60;;;26.90;46.00;;;;;;5009698;28;20279;-50
2021/12/27 06:18:55;;;;;;;3.25;1.65;;;26.90;46.10;;;;;;5007617;28;20646;-53
2021/12/27 06:21:26;;;;;;;4.20;1.35;;;26.90;46.40;;;;;;5009673;28;20284;-49
2021/12/27 06:23:58;;;;;;;5.00;1.75;;;26.90;46.10;;;;;;5007234;28;20201;-50
2021/12/27 06:26:29;;;;;;;4.70;1.73;;;26.90;46.10;;;;;;5006457;28;20308;-55
2021/12/27 06:28:59;;;;;;;3.45;1.52;;;26.90;46.20;;;;;;5007880;28;20299;-55
2021/12/27 06:31:30;;;;;;;5.00;1.90;;;26.80;46.10;;;;;;5008308;28;20633;-56
2021/12/27 06:34:00;;;;;;;4.88;1.50;;;26.80;46.20;;;;;;5008560;28;20276;-50
2021/12/27 06:36:31;;;;;;;5.00;1.70;;;26.80;46.20;;;;;;5008575;28;20283;-46
2021/12/27 06:39:04;;;;;;;4.72;2.08;;;26.80;46.30;;;;;;5007489;28;20312;-46
2021/12/27 06:41:34;;;;;;;5.07;1.83;;;26.70;46.20;;;;;;5007724;28;20203;-56
2021/12/27 06:44:05;;;;;;;4.03;1.70;;;26.70;46.20;;;;;;5007693;28;20300;-49
2021/12/27 06:46:36;;;;;;;4.07;1.65;;;26.70;46.20;;;;;;5008780;28;20228;-54
2021/12/27 06:49:07;;;;;;;4.72;1.90;;;26.70;46.30;;;;;;5008606;28;20275;-55
2021/12/27 06:51:37;;;;;;;2.95;1.52;;;26.70;46.30;;;;;;5008032;28;20292;-55
2021/12/27 06:54:09;;;;;;;4.32;1.60;;;26.70;46.30;;;;;;5007073;28;20312;-45
2021/12/27 06:56:40;;;;;;;3.95;1.90;;;26.60;46.30;;;;;;5008154;28;21527;-49
2021/12/27 06:59:10;;;;;;;4.63;1.85;;;26.60;46.30;;;;;;5007927;28;20323;-43
2021/12/27 07:01:41;;;;;;;3.42;1.73;;;26.60;46.30;;;;;;5008207;28;20296;-39
2021/12/27 07:04:11;;;;;;;3.88;1.48;;;26.60;46.30;;;;;;5007525;28;20740;-57
2021/12/27 07:06:42;;;;;;;3.25;1.58;;;26.50;46.30;;;;;;5009103;28;20279;-52
2021/12/27 07:09:14;;;;;;;2.95;1.40;;;26.50;46.30;;;;;;5008023;28;20314;-50
2021/12/27 07:11:44;;;;;;;3.42;1.80;;;26.60;46.40;;;;;;5007647;28;20284;-54
2021/12/27 07:14:15;;;;;;;3.20;1.40;;;26.50;46.30;;;;;;5007587;28;20667;-53
2021/12/27 07:16:45;;;;;;;3.97;1.60;;;26.50;46.30;;;;;;5007547;28;20207;-55
2021/12/27 07:19:16;;;;;;;3.38;1.60;;;26.50;46.30;;;;;;5007444;28;20252;-50
2021/12/27 07:21:46;;;;;;;3.08;1.50;;;26.50;46.30;;;;;;5008869;28;20279;-52
2021/12/27 07:24:19;;;;;;;4.43;1.73;;;26.50;46.40;;;;;;5007172;28;20207;-54
2021/12/27 07:26:49;;;;;;;2.80;1.48;;;26.40;46.40;;;;;;5007365;28;20288;-46
2021/12/27 07:29:20;;;;;;;2.63;1.55;;;26.40;46.40;;;;;;5004809;28;21001;-51
2021/12/27 07:31:50;;;;;;;3.00;1.35;;;26.40;46.50;;;;;;5005438;28;20211;-52
2021/12/27 07:34:24;;;;;;;2.83;1.60;;;26.40;46.40;;;;;;5007098;28;20221;-48
2021/12/27 07:36:55;;;;;;;2.75;1.63;;;26.40;46.50;;;;;;5007749;28;20203;-43
2021/12/27 07:39:29;;;;;;;3.58;1.55;;;26.40;46.50;;;;;;5008132;28;20307;-53
2021/12/27 07:41:59;;;;;;;3.60;1.38;;;26.30;46.50;;;;;;5006331;28;20284;-50
2021/12/27 07:44:30;;;;;;;3.25;1.50;;;26.30;46.40;;;;;;5007399;28;20280;-41
2021/12/27 07:47:00;;;;;;;1.88;1.48;;;26.30;46.50;;;;;;5006703;28;20197;-52
2021/12/27 07:49:31;;;;;;;1.95;1.30;;;26.30;46.50;;;;;;5007016;28;20319;-56
2021/12/27 07:52:02;;;;;;;2.60;1.40;;;26.30;46.50;;;;;;5007994;28;20280;-52
2021/12/27 07:54:34;;;;;;;3.45;1.60;;;26.20;46.70;;;;;;5008363;28;20339;-48
2021/12/27 07:57:05;;;;;;;2.10;1.27;;;26.20;46.60;;;;;;5008004;28;20228;-56
2021/12/27 07:59:35;;;;;;;3.33;1.50;;;26.20;46.50;;;;;;5007029;28;20665;-46
2021/12/27 08:02:06;;;;;;;3.10;1.40;;;26.10;46.50;;;;;;5010370;28;20280;-56
2021/12/27 08:04:36;;;;;;;2.45;1.40;;;26.10;46.50;;;;;;5008590;28;20355;-49
2021/12/27 08:07:07;;;;;;;2.30;1.42;;;26.20;46.60;;;;;;5011999;28;20279;-50
2021/12/27 08:09:39;;;;;;;3.28;1.52;;;26.10;46.50;;;;;;5010491;28;20296;-48
2021/12/27 08:12:12;;;;;;;2.55;1.40;;;26.10;46.60;;;;;;5010557;28;20280;-51
2021/12/27 08:14:43;;;;;;;2.70;1.50;;;26.10;46.60;;;;;;5010376;28;20228;-47
2021/12/27 08:17:13;;;;;;;3.38;1.70;;;26.10;46.60;;;;;;5011232;28;20296;-55
2021/12/27 08:19:45;;;;;;;2.22;1.52;;;26.10;46.60;;;;;;5011009;28;20255;-53
2021/12/27 08:22:16;;;;;;;1.90;1.20;;;26.00;46.60;;;;;;5009829;28;20201;-55
2021/12/27 08:24:48;;;;;;;3.22;1.50;;;26.00;46.60;;;;;;5010459;28;20291;-51
2021/12/27 08:27:19;;;;;;;2.60;1.33;;;25.90;46.50;;;;;;5010979;28;20298;-55
2021/12/27 08:29:50;;;;;;;1.67;1.13;;;25.90;46.60;;;;;;5011862;28;20255;-48
2021/12/27 08:32:20;;;;;;;2.70;1.33;;;25.90;46.60;;;;;;5008555;28;20292;-52
2021/12/27 08:34:51;;;;;;;2.40;1.27;;;25.90;46.60;;;;;;5010205;28;20308;-49
2021/12/27 08:37:21;;;;;;;2.35;1.33;;;25.90;46.60;;;;;;5009902;28;20208;-40
2021/12/27 08:39:54;;;;;;;1.95;1.20;;;25.80;46.60;;;;;;5009407;28;20790;-54
2021/12/27 08:42:24;;;;;;;1.95;1.30;;;25.80;46.60;;;;;;5009450;28;20295;-47
2021/12/27 08:44:55;;;;;;;3.13;1.45;;;25.80;46.70;;;;;;5010321;28;20284;-50
2021/12/27 08:47:25;;;;;;;3.40;1.30;;;25.80;46.80;;;;;;5010959;28;20295;-45
2021/12/27 08:49:56;;;;;;;3.65;1.83;;;25.80;46.80;;;;;;5010174;28;20308;-43
2021/12/27 08:52:26;;;;;;;2.92;1.42;;;25.80;46.90;;;;;;5009929;28;20288;-44
2021/12/27 08:55:01;;;;;;;4.88;1.75;;;25.80;47.00;;;;;;5009271;28;20304;-46
2021/12/27 08:57:32;;;;;;;5.07;1.63;;;25.80;47.10;;;;;;5008521;28;20206;-57
2021/12/27 09:00:06;;;;;;;2.63;1.50;;;25.80;47.20;;;;;;5009037;28;20253;-57
2021/12/27 09:02:37;;;;;;;3.17;1.40;;;25.70;47.20;;;;;;5010510;28;20287;-57
2021/12/27 09:05:08;;;;;;;2.60;1.60;;;25.70;47.20;;;;;;5008767;28;20283;-58
2021/12/27 09:07:39;;;;;;;2.75;1.42;;;25.70;47.30;;;;;;5010097;28;20300;-57
2021/12/27 09:10:13;;;;;;;2.75;1.25;;;25.70;47.30;;;;;;5009620;28;20311;-47
2021/12/27 09:12:43;;;;;;;3.20;1.38;;;25.60;47.30;;;;;;5009891;28;20236;-46
2021/12/27 09:15:16;;;;;;;3.45;1.55;;;25.60;47.30;;;;;;5009782;28;20316;-45
2021/12/27 09:17:46;;;;;;;3.40;1.48;;;25.60;47.20;;;;;;5008543;28;20324;-53
2021/12/27 09:20:18;;;;;;;5.05;1.65;;;25.60;47.30;;;;;;5009888;28;20244;-52
2021/12/27 09:22:49;;;;;;;2.53;1.30;;;25.60;47.30;;;;;;5009346;28;20287;-42
2021/12/27 09:25:21;;;;;;;4.25;1.52;;;25.50;47.30;;;;;;5009000;28;20220;-45
2021/12/27 09:27:52;;;;;;;2.53;1.25;;;25.50;47.30;;;;;;5008838;28;20255;-48
2021/12/27 09:30:22;;;;;;;3.08;1.30;;;25.50;47.30;;;;;;5009397;28;20307;-50
2021/12/27 09:32:53;;;;;;;3.72;1.35;;;25.50;47.30;;;;;;5010210;28;20300;-48
2021/12/27 09:35:23;;;;;;;2.40;1.35;;;25.40;47.30;;;;;;5010423;28;20229;-48
2021/12/27 09:37:54;;;;;;;2.63;1.23;;;25.40;47.30;;;;;;5008529;28;20296;-43
2021/12/27 09:40:27;;;;;;;2.03;1.15;;;25.40;47.30;;;;;;5008187;28;20650;-54
2021/12/27 09:42:57;;;;;;;2.67;1.08;;;25.40;47.30;;;;;;5008812;28;20308;-54
2021/12/27 09:45:28;;;;;;;3.95;1.42;;;25.40;47.30;;;;;;5009275;28;20283;-50
2021/12/27 09:47:58;;;;;;;2.90;1.52;;;25.30;47.40;;;;;;5008826;28;20283;-57
2021/12/27 09:50:32;;;;;;;3.28;1.73;;;25.40;47.40;;;;;;5008579;28;20312;-55
2021/12/27 09:53:03;;;;;;;1.73;1.15;;;25.30;47.40;;;;;;5009547;28;20280;-43
2021/12/27 09:55:35;;;;;;;3.70;1.40;;;25.30;47.30;;;;;;5009306;28;20304;-43
2021/12/27 09:58:06;;;;;;;2.08;1.30;;;25.30;47.40;;;;;;5008730;28;20236;-50
2021/12/27 10:00:37;;;;;;;2.17;1.42;;;25.30;47.40;;;;;;5008681;28;20304;-50
2021/12/27 10:03:09;;;;;;;3.60;1.50;;;25.30;47.40;;;;;;5007632;28;20212;-54
2021/12/27 10:05:41;;;;;;;1.73;1.20;;;25.20;47.40;;;;;;5009188;28;20229;-46
2021/12/27 10:08:11;;;;;;;3.17;1.42;;;25.30;47.50;;;;;;5009440;28;20247;-46
2021/12/27 10:10:43;;;;;;;2.15;1.48;;;25.20;47.40;;;;;;5009627;28;20263;-53
2021/12/27 10:13:14;;;;;;;2.20;1.30;;;25.20;47.40;;;;;;5009135;28;20639;-54
2021/12/27 10:15:47;;;;;;;3.75;1.58;;;25.20;47.50;;;;;;5008318;28;20228;-55
2021/12/27 10:18:19;;;;;;;3.05;1.52;;;25.20;47.50;;;;;;5009053;28;20674;-47
2021/12/27 10:20:49;;;;;;;2.33;1.50;;;25.10;47.50;;;;;;5008018;28;20283;-50
2021/12/27 10:23:20;;;;;;;3.33;1.48;;;25.10;47.40;;;;;;5008163;28;20903;-50
2021/12/27 10:25:54;;;;;;;2.35;1.25;;;25.10;47.60;;;;;;5008977;28;20219;-56
2021/12/27 10:28:29;;;;;;;2.08;1.35;;;25.10;47.50;;;;;;5008329;28;20291;-52
2021/12/27 10:31:05;;;;;;;2.58;1.10;;;25.10;47.50;;;;;;5008777;28;20243;-57
2021/12/27 10:33:36;;;;;;;2.67;1.10;;;25.10;47.50;;;;;;5008721;28;20288;-51
2021/12/27 10:36:07;;;;;;;2.20;1.30;;;25.00;47.40;;;;;;5008560;28;20315;-58
2021/12/27 10:38:40;;;;;;;3.00;1.38;;;25.10;47.60;;;;;;5007628;28;20437;-51
2021/12/27 10:41:13;;;;;;;1.90;1.30;;;25.00;47.50;;;;;;5008018;28;20657;-52
2021/12/27 10:43:45;;;;;;;2.05;1.15;;;25.00;47.50;;;;;;5007594;28;20232;-49
2021/12/27 10:46:16;;;;;;;2.28;1.27;;;24.90;47.50;;;;;;5008347;28;20203;-57
2021/12/27 10:48:49;;;;;;;2.25;1.23;;;25.00;47.50;;;;;;5007886;28;20295;-42
2021/12/27 10:51:19;;;;;;;1.50;1.10;;;24.90;47.50;;;;;;5007516;28;20797;-54
2021/12/27 10:53:51;;;;;;;1.60;1.17;;;24.90;47.50;;;;;;5008913;28;20236;-44
2021/12/27 10:56:25;;;;;;;2.25;1.30;;;24.90;47.50;;;;;;5007327;28;20315;-45
2021/12/27 10:59:01;;;;;;;2.50;1.35;;;24.90;47.60;;;;;;5007579;28;20307;-51
2021/12/27 11:01:32;;;;;;;2.30;1.30;;;24.90;47.60;;;;;;5007838;28;20286;-57
2021/12/27 11:04:04;;;;;;;2.33;1.30;;;24.80;47.60;;;;;;5007799;28;20284;-50
2021/12/27 11:06:42;;;;;;;2.92;1.30;;;24.80;47.70;;;;;;5006337;28;20281;-49
2021/12/27 11:09:14;;;;;;;2.20;1.20;;;24.80;47.70;;;;;;5006880;28;20329;-47
2021/12/27 11:11:46;;;;;;;1.65;1.05;;;24.80;47.70;;;;;;5008098;28;20267;-47
2021/12/27 11:14:17;;;;;;;1.85;1.27;;;24.80;47.70;;;;;;5008696;28;20720;-50
2021/12/27 11:16:47;;;;;;;1.42;1.30;;;24.80;47.80;;;;;;5008505;28;20244;-45
2021/12/27 11:19:18;;;;;;;1.55;1.00;;;24.80;47.70;;;;;;5007268;28;20300;-53
2021/12/27 11:21:49;;;;;;;3.03;1.45;;;24.80;47.70;;;;;;5022766;28;20277;-55
2021/12/27 11:24:20;;;;;;;2.67;1.30;;;24.70;47.70;;;;;;5019565;28;20200;-58
2021/12/27 11:26:55;;;;;;;2.42;1.35;;;24.70;47.70;;;;;;5018757;28;20223;-53
2021/12/27 11:29:26;;;;;;;3.83;1.30;;;24.70;47.70;;;;;;5014332;28;20221;-48
2021/12/27 11:32:16;;;;;;;2.78;1.38;;;24.70;47.80;;;;;;4994495;28;20240;-55
2021/12/27 11:34:58;;;;;;;2.28;1.27;;;24.60;47.70;;;;;;4993593;28;20197;-51
2021/12/27 11:37:39;;;;;;;1.75;1.20;;;24.70;47.70;;;;;;5024464;28;20631;-54
2021/12/27 11:40:11;;;;;;;2.33;1.40;;;24.60;47.70;;;;;;5009923;28;20312;-51
2021/12/27 11:43:01;;;;;;;1.70;1.20;;;24.60;47.70;;;;;;4999053;28;20209;-53
2021/12/27 11:45:46;;;;;;;1.42;1.10;;;24.60;47.80;;;;;;5025059;28;20287;-57
2021/12/27 11:48:18;;;;;;;2.03;1.30;;;24.60;47.80;;;;;;5000050;28;20784;-56
2021/12/27 11:51:11;;;;;;;2.10;1.38;;;24.50;47.80;;;;;;5008782;28;20235;-49
2021/12/27 11:53:53;;;;;;;2.08;1.13;;;24.50;47.80;;;;;;5011549;28;20762;-55
2021/12/27 11:56:44;;;;;;;2.75;1.38;;;24.50;47.80;;;;;;5012605;28;20223;-53
2021/12/27 11:59:42;;;;;;;2.35;1.20;;;24.50;47.90;;;;;;5014227;28;20221;-47
2021/12/27 12:02:31;;;;;;;2.28;1.00;;;24.50;47.80;;;;;;5018751;28;20204;-53
2021/12/27 12:05:02;;;;;;;2.22;1.30;;;24.50;47.90;;;;;;5007353;28;20198;-56
2021/12/27 12:07:54;;;;;;;3.03;1.30;;;24.50;47.80;;;;;;4998658;28;20285;-51
2021/12/27 12:10:26;;;;;;;1.40;1.15;;;24.50;47.90;;;;;;4998460;28;20251;-50
2021/12/27 12:13:18;;;;;;;1.98;1.30;;;24.50;47.90;;;;;;5011168;28;20201;-49
2021/12/27 12:16:11;;;;;;;2.30;1.13;;;24.40;47.80;;;;;;5010355;28;20220;-50
2021/12/27 12:18:44;;;;;;;2.88;1.25;;;24.40;47.80;;;;;;5012017;28;20217;-52
2021/12/27 12:21:42;;;;;;;2.80;1.30;;;24.50;47.90;;;;;;5011162;28;20623;-40
2021/12/27 12:24:21;;;;;;;2.17;1.02;;;24.40;47.90;;;;;;5010787;28;20292;-54
2021/12/27 12:26:57;;;;;;;1.73;1.02;;;24.40;47.90;;;;;;4994053;28;20292;-47
2021/12/27 12:29:29;;;;;;;1.80;1.25;;;24.40;47.90;;;;;;4996019;28;20245;-48
2021/12/27 12:32:03;;;;;;;1.50;1.00;;;24.40;47.90;;;;;;5010282;28;20288;-47
2021/12/27 12:34:33;;;;;;;1.70;1.27;;;24.30;47.90;;;;;;5010904;28;20675;-44
2021/12/27 12:37:06;;;;;;;1.55;1.23;;;24.30;47.90;;;;;;5009810;28;20249;-42
2021/12/27 12:39:43;;;;;;;2.08;1.27;;;24.30;48.00;;;;;;5010046;28;20307;-48
2021/12/27 12:42:15;;;;;;;2.72;1.10;;;24.30;48.00;;;;;;5010790;28;20274;-47
2021/12/27 12:44:51;;;;;;;2.35;1.20;;;24.30;47.90;;;;;;5009510;28;20283;-52
2021/12/27 12:47:25;;;;;;;1.88;1.10;;;24.30;48.00;;;;;;5010452;28;20296;-49
2021/12/27 12:49:55;;;;;;;2.50;1.08;;;24.30;48.00;;;;;;5003213;28;20339;-56
2021/12/27 12:52:26;;;;;;;2.03;1.20;;;24.30;48.00;;;;;;5007994;28;20197;-53
2021/12/27 12:54:56;;;;;;;2.63;1.10;;;24.30;48.00;;;;;;5010277;28;20711;-55
2021/12/27 12:57:27;;;;;;;2.08;1.23;;;24.20;48.00;;;;;;5012328;28;20220;-55
2021/12/27 12:59:59;;;;;;;1.33;1.08;;;24.20;48.00;;;;;;5010162;28;20296;-47
2021/12/27 13:02:32;;;;;;;1.70;1.10;;;24.20;48.00;;;;;;4996597;28;20280;-50
2021/12/27 13:05:03;;;;;;;1.60;1.10;;;24.20;48.00;;;;;;4993667;28;20287;-52
2021/12/27 13:07:39;;;;;;;1.40;1.00;;;24.20;48.00;;;;;;4995564;28;20682;-50
2021/12/27 13:10:11;;;;;;;1.70;1.17;;;24.20;48.00;;;;;;5008119;28;20235;-50
2021/12/27 13:12:41;;;;;;;1.15;1.05;;;24.20;48.00;;;;;;5010889;28;20236;-53